createdAt,value
2023-01-31T00:03:36.639Z,100.00
2023-01-31T00:08:39.930Z,100.00
2023-01-31T00:13:43.496Z,100.00
2023-01-31T00:18:46.930Z,100.00
2023-01-31T00:23:50.424Z,100.00
2023-01-31T00:28:55.278Z,100.00
2023-01-31T00:33:58.886Z,100.00
2023-01-31T00:39:05.277Z,100.00
2023-01-31T00:44:08.381Z,100.00
2023-01-31T00:49:11.681Z,100.00
2023-01-31T00:54:14.696Z,100.00
2023-01-31T00:59:17.795Z,100.00
2023-01-31T01:04:21.105Z,100.00
2023-01-31T01:09:24.004Z,100.00
2023-01-31T01:14:27.528Z,100.00
2023-01-31T01:19:31.074Z,100.00
2023-01-31T01:24:34.675Z,100.00
2023-01-31T01:29:38.760Z,100.00
2023-01-31T01:34:41.784Z,100.00
2023-01-31T01:39:44.896Z,100.00
2023-01-31T01:44:49.942Z,100.00
2023-01-31T01:49:59.089Z,100.00
2023-01-31T01:55:13.313Z,100.00
2023-01-31T02:00:22.400Z,100.00
2023-01-31T02:05:32.700Z,100.00
2023-01-31T02:11:25.340Z,100.00
2023-01-31T02:16:29.268Z,100.00
2023-01-31T02:21:54.289Z,100.00
2023-01-31T02:27:25.577Z,100.00
2023-01-31T02:32:37.771Z,100.00
2023-01-31T02:37:57.977Z,100.00
2023-01-31T02:43:19.427Z,100.00
2023-01-31T02:48:32.529Z,100.00
2023-01-31T02:53:56.034Z,100.00
2023-01-31T02:59:13.583Z,100.00
2023-01-31T03:04:17.198Z,100.00
2023-01-31T03:09:36.857Z,100.00
2023-01-31T03:15:06.832Z,100.00
2023-01-31T03:20:24.585Z,100.00
2023-01-31T03:25:31.629Z,100.00
2023-01-31T03:30:52.246Z,100.00
2023-01-31T03:36:25.197Z,100.00
2023-01-31T03:41:41.303Z,100.00
2023-01-31T03:46:50.350Z,100.00
2023-01-31T03:51:59.906Z,100.00
2023-01-31T03:57:11.783Z,100.00
2023-01-31T04:02:17.897Z,100.00
2023-01-31T04:07:21.104Z,100.00
2023-01-31T04:12:24.723Z,100.00
2023-01-31T04:17:27.827Z,100.00
2023-01-31T04:22:31.338Z,100.00
2023-01-31T04:27:34.339Z,100.00
2023-01-31T04:32:37.548Z,100.00
2023-01-31T04:37:40.549Z,100.00
2023-01-31T04:42:43.757Z,100.00
2023-01-31T04:47:46.760Z,100.00
2023-01-31T04:52:51.104Z,100.00
2023-01-31T04:57:54.714Z,100.00
2023-01-31T05:02:58.406Z,100.00
2023-01-31T05:08:01.574Z,100.00
2023-01-31T05:13:05.071Z,100.00
2023-01-31T05:18:08.296Z,100.00
2023-01-31T05:23:11.878Z,100.00
2023-01-31T05:28:14.780Z,100.00
2023-01-31T05:33:20.875Z,100.00
2023-01-31T05:38:24.066Z,100.00
2023-01-31T05:43:27.268Z,100.00
2023-01-31T05:48:30.376Z,100.00
2023-01-31T05:53:33.478Z,100.00
2023-01-31T05:58:36.485Z,100.00
2023-01-31T06:03:40.109Z,100.00
2023-01-31T06:08:43.818Z,100.00
2023-01-31T06:13:46.922Z,100.00
2023-01-31T06:18:50.440Z,100.00
2023-01-31T06:23:53.854Z,100.00
2023-01-31T06:28:57.071Z,100.00
2023-01-31T06:34:00.891Z,100.00
2023-01-31T06:39:04.603Z,100.00
2023-01-31T06:44:08.492Z,100.00
2023-01-31T06:49:11.734Z,100.00
2023-01-31T06:54:15.373Z,100.00
2023-01-31T06:59:18.458Z,100.00
2023-01-31T07:04:22.323Z,100.00
2023-01-31T07:09:25.695Z,100.00
2023-01-31T07:14:28.697Z,100.00
2023-01-31T07:19:31.801Z,100.00
2023-01-31T07:24:34.904Z,100.00
2023-01-31T07:29:38.502Z,100.00
2023-01-31T07:34:41.730Z,100.00
2023-01-31T07:39:45.043Z,100.00
2023-01-31T07:44:48.712Z,100.00
2023-01-31T07:49:51.765Z,100.00
2023-01-31T07:54:55.483Z,100.00
2023-01-31T07:59:58.591Z,100.00
2023-01-31T08:05:01.995Z,100.00
2023-01-31T08:10:07.007Z,96.47
2023-01-31T08:15:10.828Z,83.92
2023-01-31T08:20:14.898Z,77.93
2023-01-31T08:25:19.690Z,70.14
2023-01-31T08:30:24.941Z,65.89
2023-01-31T08:35:29.218Z,57.36
2023-01-31T08:40:32.796Z,56.45
2023-01-31T08:45:37.101Z,56.28
2023-01-31T08:50:40.654Z,56.39
2023-01-31T08:55:44.425Z,58.50
2023-01-31T09:00:48.039Z,60.25
2023-01-31T09:05:51.170Z,62.95
2023-01-31T09:10:55.373Z,65.91
2023-01-31T09:16:00.222Z,63.29
2023-01-31T09:21:05.577Z,55.48
2023-01-31T09:26:08.787Z,53.31
2023-01-31T09:31:15.066Z,54.51
2023-01-31T09:36:20.837Z,57.15
2023-01-31T09:41:42.575Z,55.95
2023-01-31T09:46:53.735Z,51.44
2023-01-31T09:52:02.128Z,46.54
2023-01-31T09:57:23.123Z,42.90
2023-01-31T10:02:29.693Z,40.36
2023-01-31T10:07:38.448Z,38.88
2023-01-31T10:12:48.518Z,37.60
2023-01-31T10:18:00.529Z,34.96
2023-01-31T10:23:21.977Z,33.10
2023-01-31T10:28:32.293Z,33.26
2023-01-31T10:33:55.514Z,38.12
2023-01-31T10:39:22.686Z,43.16
2023-01-31T10:44:36.747Z,47.43
2023-01-31T10:49:40.578Z,51.50
2023-01-31T10:55:06.716Z,55.25
2023-01-31T11:00:27.228Z,58.61
2023-01-31T11:05:31.049Z,60.14
2023-01-31T11:10:34.469Z,61.54
2023-01-31T11:15:43.169Z,62.50
2023-01-31T11:20:47.647Z,63.60
2023-01-31T11:25:53.174Z,64.37
2023-01-31T11:30:56.790Z,64.88
2023-01-31T11:36:00.036Z,65.25
2023-01-31T11:41:41.999Z,65.95
2023-01-31T11:46:48.329Z,65.60
2023-01-31T11:51:51.950Z,65.51
2023-01-31T11:56:56.859Z,65.62
2023-01-31T12:02:01.736Z,66.10
2023-01-31T12:07:21.331Z,66.21
2023-01-31T12:12:30.332Z,66.44
2023-01-31T12:17:42.492Z,66.60
2023-01-31T12:23:04.641Z,67.27
2023-01-31T12:28:10.919Z,67.62
2023-01-31T12:33:34.923Z,67.84
2023-01-31T12:39:02.815Z,68.01
2023-01-31T12:44:30.280Z,68.73
2023-01-31T12:49:58.786Z,69.70
2023-01-31T12:55:13.046Z,70.37
2023-01-31T13:00:26.031Z,70.75
2023-01-31T13:05:43.114Z,70.39
2023-01-31T13:10:55.355Z,70.60
2023-01-31T13:16:01.338Z,71.04
2023-01-31T13:21:08.159Z,71.73
2023-01-31T13:26:21.941Z,71.57
2023-01-31T13:31:29.334Z,71.67
2023-01-31T13:36:47.830Z,72.39
2023-01-31T13:41:51.239Z,73.27
2023-01-31T13:47:05.322Z,73.98
2023-01-31T13:52:19.673Z,74.48
2023-01-31T13:57:31.379Z,75.01
2023-01-31T14:02:37.832Z,75.79
2023-01-31T14:07:41.796Z,76.45
2023-01-31T14:12:45.631Z,77.24
2023-01-31T14:17:51.687Z,78.06
2023-01-31T14:23:31.494Z,78.71
2023-01-31T14:28:42.752Z,79.49
2023-01-31T14:33:48.878Z,80.49
2023-01-31T14:39:33.812Z,81.44
2023-01-31T14:44:46.662Z,82.64
2023-01-31T14:50:07.465Z,83.68
2023-01-31T14:55:48.460Z,84.71
2023-01-31T15:01:02.273Z,85.73
2023-01-31T15:06:16.709Z,86.55
2023-01-31T15:11:49.625Z,87.04
2023-01-31T15:17:37.016Z,87.75
2023-01-31T15:22:44.858Z,88.71
2023-01-31T15:27:49.135Z,89.38
2023-01-31T15:33:01.105Z,89.97
2023-01-31T15:38:22.942Z,90.68
2023-01-31T15:43:26.257Z,91.18
2023-01-31T15:48:29.667Z,91.55
2023-01-31T15:53:33.267Z,91.96
2023-01-31T15:58:38.238Z,92.52
2023-01-31T16:03:43.638Z,92.68
2023-01-31T16:08:52.635Z,93.25
2023-01-31T16:13:58.349Z,93.62
2023-01-31T16:19:02.973Z,94.23
2023-01-31T16:24:19.618Z,94.65
2023-01-31T16:29:25.669Z,95.17
2023-01-31T16:34:37.106Z,95.58
2023-01-31T16:39:54.910Z,96.67
2023-01-31T16:45:25.546Z,97.56
2023-01-31T16:50:43.222Z,98.38
2023-01-31T16:56:14.863Z,98.93
2023-01-31T17:01:23.490Z,99.49
2023-01-31T17:06:27.426Z,99.93
2023-01-31T17:11:42.325Z,100.00
2023-01-31T17:16:51.701Z,100.00
2023-01-31T17:21:55.797Z,100.00
2023-01-31T17:26:58.777Z,100.00
2023-01-31T17:32:02.209Z,100.00
2023-01-31T17:37:05.931Z,100.00
2023-01-31T17:42:22.230Z,100.00
2023-01-31T17:47:27.501Z,100.00
2023-01-31T17:52:31.427Z,100.00
2023-01-31T17:57:35.250Z,100.00
2023-01-31T18:02:42.673Z,100.00
2023-01-31T18:07:49.491Z,100.00
2023-01-31T18:12:53.063Z,100.00
2023-01-31T18:17:56.682Z,100.00
2023-01-31T18:22:59.888Z,100.00
2023-01-31T18:28:03.198Z,100.00
2023-01-31T18:33:06.306Z,100.00
2023-01-31T18:38:09.618Z,100.00
2023-01-31T18:43:12.673Z,100.00
2023-01-31T18:48:16.552Z,100.00
2023-01-31T18:53:20.060Z,100.00
2023-01-31T18:58:23.585Z,100.00
2023-01-31T19:03:27.374Z,100.00
2023-01-31T19:08:30.818Z,100.00
2023-01-31T19:13:34.426Z,100.00
2023-01-31T19:18:38.148Z,100.00
2023-01-31T19:23:41.671Z,100.00
2023-01-31T19:28:46.486Z,100.00
2023-01-31T19:33:54.535Z,100.00
2023-01-31T19:38:59.288Z,100.00
2023-01-31T19:44:03.305Z,100.00
2023-01-31T19:49:07.432Z,100.00
2023-01-31T19:54:16.989Z,100.00
2023-01-31T19:59:20.302Z,100.00
2023-01-31T20:04:23.321Z,100.00
2023-01-31T20:09:26.311Z,100.00
2023-01-31T20:14:30.228Z,100.00
2023-01-31T20:19:33.436Z,100.00
2023-01-31T20:24:37.164Z,100.00
2023-01-31T20:29:40.671Z,100.00
2023-01-31T20:34:46.201Z,100.00
2023-01-31T20:39:50.466Z,100.00
2023-01-31T20:44:54.191Z,100.00
2023-01-31T20:49:57.808Z,100.00
2023-01-31T20:55:02.554Z,100.00
2023-01-31T21:00:08.290Z,100.00
2023-01-31T21:05:14.806Z,100.00
2023-01-31T21:10:19.104Z,100.00
2023-01-31T21:15:22.609Z,100.00
2023-01-31T21:20:27.201Z,100.00
2023-01-31T21:25:31.733Z,100.00
2023-01-31T21:30:35.990Z,100.00
2023-01-31T21:35:40.518Z,100.00
2023-01-31T21:40:46.587Z,100.00
2023-01-31T21:45:50.235Z,100.00
2023-01-31T21:50:53.815Z,100.00
2023-01-31T21:56:05.249Z,100.00
2023-01-31T22:01:18.323Z,100.00
2023-01-31T22:06:31.510Z,100.00
2023-01-31T22:11:37.495Z,100.00
2023-01-31T22:16:41.617Z,100.00
2023-01-31T22:21:45.932Z,100.00
2023-01-31T22:26:49.054Z,100.00
2023-01-31T22:31:55.294Z,100.00
2023-01-31T22:36:58.529Z,100.00
2023-01-31T22:42:01.630Z,100.00
2023-01-31T22:47:04.954Z,100.00
2023-01-31T22:52:07.947Z,100.00
2023-01-31T22:57:11.361Z,100.00
2023-01-31T23:02:14.980Z,100.00
2023-01-31T23:07:17.977Z,100.00
2023-01-31T23:12:21.757Z,100.00
2023-01-31T23:17:39.778Z,100.00
2023-01-31T23:22:43.696Z,100.00
2023-01-31T23:27:46.995Z,100.00
2023-01-31T23:32:50.198Z,100.00
2023-01-31T23:37:53.724Z,100.00
2023-01-31T23:42:56.821Z,100.00
2023-01-31T23:47:59.823Z,100.00
2023-01-31T23:53:02.930Z,100.00
2023-01-31T23:58:06.243Z,100.00
